sensor_id;sensor_type;location;lat;lon;timestamp;pressure;altitude;pressure_sealevel;temperature;humidity
61740;BME280;47645;45.288;12.038;2023-01-04T00:00:31;1030.2163374341574;;;10.50859375;100
61740;BME280;47645;45.288;12.038;2023-01-04T00:10:31;1030.1863847958439;;;10.3455078125;100
61740;BME280;47645;45.288;12.038;2023-01-04T00:20:32;1030.219302593362;;;10.299609375;100
61740;BME280;47645;45.288;12.038;2023-01-04T00:30:32;1030.2286850357707;;;10.309765625;100
61740;BME280;47645;45.288;12.038;2023-01-04T00:40:33;1030.2200623702433;;;10.3556640625;100
61740;BME280;47645;45.288;12.038;2023-01-04T00:50:33;1030.1320560890792;;;10.319921875;100
61740;BME280;47645;45.288;12.038;2023-01-04T01:00:34;1030.1269218810462;;;10.3556640625;100
61740;BME280;47645;45.288;12.038;2023-01-04T01:10:34;1030.1574755185684;;;10.38125;100
61740;BME280;47645;45.288;12.038;2023-01-04T01:20:40;1030.2761414876504;;;10.3658203125;100
61740;BME280;47645;45.288;12.038;2023-01-04T01:30:39;1030.3603805487996;;;10.3404296875;100
61740;BME280;47645;45.288;12.038;2023-01-04T01:40:40;1030.3709093799555;;;10.3302734375;100
61740;BME280;47645;45.288;12.038;2023-01-04T01:50:39;1030.356158977615;;;10.386328125;100
61740;BME280;47645;45.288;12.038;2023-01-04T02:00:37;1030.393982381835;;;10.299609375;100
61740;BME280;47645;45.288;12.038;2023-01-04T02:10:38;1030.4130706603057;;;10.2638671875;100
61740;BME280;47645;45.288;12.038;2023-01-04T02:20:43;1030.3279855110459;;;10.2587890625;100
61740;BME280;47645;45.288;12.038;2023-01-04T02:30:58;1030.285751886657;;;10.2181640625;100
61740;BME280;47645;45.288;12.038;2023-01-04T02:40:45;1030.2625970956558;;;10.06015625;100
61740;BME280;47645;45.288;12.038;2023-01-04T02:50:50;1030.256101470692;;;9.891796875;100
61740;BME280;47645;45.288;12.038;2023-01-04T03:06:16;1030.3223874874848;;;9.784765625;100
61740;BME280;47645;45.288;12.038;2023-01-04T03:10:46;1030.1664759390137;;;9.530078125;100
61740;BME280;47645;45.288;12.038;2023-01-04T03:20:43;1030.0424907302438;;;9.5912109375;100
61740;BME280;47645;45.288;12.038;2023-01-04T03:50:46;1030.00941963171;;;9.525;100
61740;BME280;47645;45.288;12.038;2023-01-04T04:00:45;1030.0065768072407;;;9.41796875;100
61740;BME280;47645;45.288;12.038;2023-01-04T04:10:44;1029.934659185658;;;9.305859375;100
61740;BME280;47645;45.288;12.038;2023-01-04T04:20:45;1029.930880879922;;;9.346484375;100
61740;BME280;47645;45.288;12.038;2023-01-04T04:30:48;1030.0079557847864;;;9.2701171875;100
61740;BME280;47645;45.288;12.038;2023-01-04T04:41:51;1029.957086216374;;;9.2853515625;100
61740;BME280;47645;45.288;12.038;2023-01-04T04:50:47;1029.9171421571662;;;9.3515625;100
61740;BME280;47645;45.288;12.038;2023-01-04T05:00:47;1030.0167019989537;;;9.5044921875;100
61740;BME280;47645;45.288;12.038;2023-01-04T05:10:48;1030.1986282481128;;;9.550390625;100
61740;BME280;47645;45.288;12.038;2023-01-04T05:20:49;1030.340853774464;;;9.6421875;100
61740;BME280;47645;45.288;12.038;2023-01-04T05:30:51;1030.3602231677014;;;9.4689453125;100
61740;BME280;47645;45.288;12.038;2023-01-04T05:40:50;1030.2662865436782;;;9.43828125;100
61740;BME280;47645;45.288;12.038;2023-01-04T05:50:51;1030.2917306379468;;;9.433203125;100
61740;BME280;47645;45.288;12.038;2023-01-04T06:00:51;1030.2943761999702;;;9.5095703125;100
61740;BME280;47645;45.288;12.038;2023-01-04T06:10:52;1030.2911011110768;;;9.0306640625;100
61740;BME280;47645;45.288;12.038;2023-01-04T06:20:51;1030.2839550860451;;;9.4689453125;100
61740;BME280;47645;45.288;12.038;2023-01-04T06:30:52;1030.45548308791;;;9.3974609375;100
61740;BME280;47645;45.288;12.038;2023-01-04T06:40:53;1030.5007284076485;;;9.132421875;100
61740;BME280;47645;45.288;12.038;2023-01-04T06:50:53;1030.633437999738;;;9.3568359375;100
61740;BME280;47645;45.288;12.038;2023-01-04T07:00:54;1030.6713278966072;;;9.4076171875;100
61740;BME280;47645;45.288;12.038;2023-01-04T07:10:54;1030.7200942474515;;;9.234375;100
61740;BME280;47645;45.288;12.038;2023-01-04T07:20:55;1030.7761569492907;;;9.2498046875;100
61740;BME280;47645;45.288;12.038;2023-01-04T07:30:55;1030.8580337901155;;;9.4689453125;100
61740;BME280;47645;45.288;12.038;2023-01-04T07:40:56;1030.913612555199;;;9.3974609375;100
61740;BME280;47645;45.288;12.038;2023-01-04T07:50:56;1031.132950496295;;;9.112109375;100
61740;BME280;47645;45.288;12.038;2023-01-04T08:01:05;1031.1902227179262;;;8.994921875;100
61740;BME280;47645;45.288;12.038;2023-01-04T08:11:00;1031.0963677919005;;;9.234375;100
61740;BME280;47645;45.288;12.038;2023-01-04T08:21:02;1031.0631594368058;;;9.4025390625;100
61740;BME280;47645;45.288;12.038;2023-01-04T08:31:03;1031.0341366583345;;;8.91328125;100
61740;BME280;47645;45.288;12.038;2023-01-04T08:40:59;1030.9687016051123;;;9.1681640625;100
61740;BME280;47645;45.288;12.038;2023-01-04T08:51:00;1031.0294508029367;;;10.0041015625;100
61740;BME280;47645;45.288;12.038;2023-01-04T09:01:05;1031.1502646234912;;;10.1111328125;100
61740;BME280;47645;45.288;12.038;2023-01-04T09:11:05;1031.1542030291685;;;10.2587890625;100
61740;BME280;47645;45.288;12.038;2023-01-04T09:21:05;1031.2913994581468;;;10.4626953125;100
61740;BME280;47645;45.288;12.038;2023-01-04T09:31:04;1031.332257665292;;;10.5443359375;100
61740;BME280;47645;45.288;12.038;2023-01-04T09:41:09;1031.2613474071256;;;10.421875;100
61740;BME280;47645;45.288;12.038;2023-01-04T09:51:05;1031.1900468721358;;;10.27421875;100
61740;BME280;47645;45.288;12.038;2023-01-04T10:01:06;1031.1060161667929;;;10.3251953125;100
61740;BME280;47645;45.288;12.038;2023-01-04T10:11:14;1031.015536491325;;;10.6919921875;100
61740;BME280;47645;45.288;12.038;2023-01-04T10:21:20;1030.9868347258275;;;11.2119140625;100
61740;BME280;47645;45.288;12.038;2023-01-04T10:31:10;1030.859051068597;;;11.3546875;100
61740;BME280;47645;45.288;12.038;2023-01-04T10:41:09;1030.7470713395933;;;11.8642578125;100
61740;BME280;47645;45.288;12.038;2023-01-04T10:51:07;1030.699701412505;;;11.81328125;100
61740;BME280;47645;45.288;12.038;2023-01-04T11:01:10;1030.4952899200807;;;11.915234375;100
61740;BME280;47645;45.288;12.038;2023-01-04T11:11:10;1030.3860100587337;;;12.0171875;99.77614057402367
61740;BME280;47645;45.288;12.038;2023-01-04T11:21:10;1030.3604014262912;;;11.77265625;100
61740;BME280;47645;45.288;12.038;2023-01-04T11:31:17;1030.1368697054013;;;11.8693359375;100
61740;BME280;47645;45.288;12.038;2023-01-04T11:41:15;1029.9094387466105;;;12.10390625;100
61740;BME280;47645;45.288;12.038;2023-01-04T11:51:43;1029.8224002604206;;;12.3078125;99.91164937446642
61740;BME280;47645;45.288;12.038;2023-01-04T12:01:22;1029.6910604077957;;;12.5830078125;97.83304938544134
61740;BME280;47645;45.288;12.038;2023-01-04T12:11:18;1029.5738174873593;;;12.53203125;97.6875623268746
61740;BME280;47645;45.288;12.038;2023-01-04T12:21:16;1029.396771444045;;;12.6390625;96.76337966315013
61740;BME280;47645;45.288;12.038;2023-01-04T12:31:33;1029.2885894729236;;;12.5166015625;97.74022848062117
61740;BME280;47645;45.288;12.038;2023-01-04T12:41:14;1029.1828025888092;;;12.4962890625;98.890255643362
61740;BME280;47645;45.288;12.038;2023-01-04T12:51:18;1029.0851669167791;;;12.7205078125;97.34206669912236
61740;BME280;47645;45.288;12.038;2023-01-04T13:01:25;1028.9764223474454;;;12.7205078125;96.8740766220697
61740;BME280;47645;45.288;12.038;2023-01-04T13:11:27;1028.7736381629163;;;12.62890625;97.64933603947911
61740;BME280;47645;45.288;12.038;2023-01-04T13:21:19;1028.7011661387921;;;12.6134765625;98.36801706984852
61740;BME280;47645;45.288;12.038;2023-01-04T13:31:17;1028.6167494950582;;;12.55234375;99.35721687815835
61740;BME280;47645;45.288;12.038;2023-01-04T13:41:20;1028.534869152492;;;12.8072265625;99.75846902514904
61740;BME280;47645;45.288;12.038;2023-01-04T13:51:22;1028.3799039845571;;;12.8224609375;99.92690459074015
61740;BME280;47645;45.288;12.038;2023-01-04T14:01:20;1028.360407413624;;;13.0162109375;100
61740;BME280;47645;45.288;12.038;2023-01-04T14:11:59;1028.3659870536744;;;12.751171875;100
61740;BME280;47645;45.288;12.038;2023-01-04T14:21:32;1028.4632672819528;;;12.6134765625;100
61740;BME280;47645;45.288;12.038;2023-01-04T14:31:24;1028.5094932032061;;;12.537109375;100
61740;BME280;47645;45.288;12.038;2023-01-04T14:41:22;1028.4981464029913;;;12.45546875;100
61740;BME280;47645;45.288;12.038;2023-01-04T14:51:23;1028.315586707899;;;12.312890625;100
61740;BME280;47645;45.288;12.038;2023-01-04T15:01:22;1028.0877501663335;;;12.20078125;100
61740;BME280;47645;45.288;12.038;2023-01-04T15:11:22;1027.9565943793814;;;12.0580078125;100
61740;BME280;47645;45.288;12.038;2023-01-04T15:21:22;1027.9431622367122;;;12.0171875;100
61740;BME280;47645;45.288;12.038;2023-01-04T15:31:23;1027.7904321634312;;;11.691015625;100
61740;BME280;47645;45.288;12.038;2023-01-04T15:51:24;1027.9141835898504;;;11.273046875;100
61740;BME280;47645;45.288;12.038;2023-01-04T16:01:25;1027.9990502352262;;;11.1150390625;100
61740;BME280;47645;45.288;12.038;2023-01-04T16:11:26;1027.8935302060024;;;10.9927734375;100
61740;BME280;47645;45.288;12.038;2023-01-04T16:21:27;1027.8994521819318;;;10.7736328125;100
61740;BME280;47645;45.288;12.038;2023-01-04T16:31:31;1027.9805335551512;;;10.5900390625;100
61740;BME280;47645;45.288;12.038;2023-01-04T16:41:28;1027.84572192924;;;10.51875;100
61740;BME280;47645;45.288;12.038;2023-01-04T16:51:30;1027.7622430312902;;;10.4423828125;100
61740;BME280;47645;45.288;12.038;2023-01-04T17:01:31;1027.6522371919893;;;10.3759765625;100
61740;BME280;47645;45.288;12.038;2023-01-04T17:11:32;1027.6043141716086;;;10.3556640625;100
61740;BME280;47645;45.288;12.038;2023-01-04T17:21:30;1027.4872265233746;;;10.2689453125;100
61740;BME280;47645;45.288;12.038;2023-01-04T17:31:33;1027.4910889632877;;;10.192578125;100
61740;BME280;47645;45.288;12.038;2023-01-04T17:41:31;1027.5477512845982;;;10.0091796875;100
61740;BME280;47645;45.288;12.038;2023-01-04T17:51:33;1027.7337845600432;;;9.9427734375;100
61740;BME280;47645;45.288;12.038;2023-01-04T18:01:33;1027.5715483303495;;;10.0345703125;100
61740;BME280;47645;45.288;12.038;2023-01-04T18:11:33;1027.628026645842;;;9.8154296875;100
61740;BME280;47645;45.288;12.038;2023-01-04T18:21:34;1027.5981715705527;;;9.764453125;100
61740;BME280;47645;45.288;12.038;2023-01-04T18:31:34;1027.5462386802515;;;9.6931640625;100
61740;BME280;47645;45.288;12.038;2023-01-04T18:41:35;1027.4521089552848;;;9.647265625;100
61740;BME280;47645;45.288;12.038;2023-01-04T18:51:35;1027.45002028692;;;9.530078125;100
61740;BME280;47645;45.288;12.038;2023-01-04T19:01:35;1027.3818935920158;;;9.55546875;100
61740;BME280;47645;45.288;12.038;2023-01-04T19:11:36;1027.3273605834336;;;9.4484375;100
61740;BME280;47645;45.288;12.038;2023-01-04T19:21:38;1027.3635124670943;;;9.346484375;100
61740;BME280;47645;45.288;12.038;2023-01-04T19:31:37;1027.435088920572;;;9.316015625;100
61740;BME280;47645;45.288;12.038;2023-01-04T19:41:40;1027.4073850923044;;;9.4740234375;100
61740;BME280;47645;45.288;12.038;2023-01-04T19:51:39;1027.1936966003498;;;9.453515625;100
61740;BME280;47645;45.288;12.038;2023-01-04T20:01:38;1027.1604043473394;;;9.7083984375;100
61740;BME280;47645;45.288;12.038;2023-01-04T20:11:39;1027.0943604511071;;;9.8154296875;100
61740;BME280;47645;45.288;12.038;2023-01-04T20:21:40;1027.05815707188;;;9.948046875;100
61740;BME280;47645;45.288;12.038;2023-01-04T20:31:41;1026.9009848526239;;;9.998828125;100
61740;BME280;47645;45.288;12.038;2023-01-04T20:43:32;1026.9995760742906;;;10.10078125;100
61740;BME280;47645;45.288;12.038;2023-01-04T20:51:41;1027.0631006284611;;;10.105859375;100
61740;BME280;47645;45.288;12.038;2023-01-04T21:01:41;1027.0410558626663;;;10.212890625;100
61740;BME280;47645;45.288;12.038;2023-01-04T21:11:44;1027.0043249016128;;;10.1568359375;100
61740;BME280;47645;45.288;12.038;2023-01-04T21:21:42;1026.9724330975382;;;10.309765625;100
61740;BME280;47645;45.288;12.038;2023-01-04T21:31:43;1026.8937093621075;;;10.2435546875;100
61740;BME280;47645;45.288;12.038;2023-01-04T21:41:43;1026.4517357456034;;;10.2537109375;100
61740;BME280;47645;45.288;12.038;2023-01-04T21:51:45;1026.5186634974177;;;10.1517578125;100
61740;BME280;47645;45.288;12.038;2023-01-04T22:01:44;1026.3930690631257;;;10.162109375;100
61740;BME280;47645;45.288;12.038;2023-01-04T22:11:47;1026.399419833609;;;10.162109375;100
61740;BME280;47645;45.288;12.038;2023-01-04T22:21:46;1026.31088620331;;;10.212890625;100
61740;BME280;47645;45.288;12.038;2023-01-04T22:31:46;1026.4145767779694;;;10.1212890625;100
61740;BME280;47645;45.288;12.038;2023-01-04T22:41:46;1026.405687654383;;;10.1212890625;100
61740;BME280;47645;45.288;12.038;2023-01-04T22:51:47;1026.374330299527;;;10.1517578125;100
61740;BME280;47645;45.288;12.038;2023-01-04T23:01:49;1026.1752333737022;;;10.2689453125;100
61740;BME280;47645;45.288;12.038;2023-01-04T23:11:48;1026.082125770246;;;10.2283203125;100
61740;BME280;47645;45.288;12.038;2023-01-04T23:21:49;1025.7588376139563;;;10.19765625;100
61740;BME280;47645;45.288;12.038;2023-01-04T23:31:50;1025.7689394543734;;;10.182421875;100
61740;BME280;47645;45.288;12.038;2023-01-04T23:41:51;1025.9133541478884;;;9.968359375;100
61740;BME280;47645;45.288;12.038;2023-01-04T23:51:50;1025.732103283167;;;10.075390625;100
